Time;durP1;ratioP1;P1;durP2;ratioP2;P2;SDS_P1;SDS_P2;PMS_P1;PMS_P2;Temp;Humidity;BMP_temperature;BMP_pressure;BME280_temperature;BME280_humidity;BME280_pressure;Samples;Min_cycle;Max_cycle;Signal;HPM_P1;HPM_P2
2022/02/27 00:01:30;;;;;;;2.42;1.45;;;;;;;-145.06;0.00;60892.56;4782679;28;20039;-90
2022/02/27 00:04:09;;;;;;;2.85;1.38;;;;;;;-145.06;0.00;60892.56;4771246;29;20039;-89
2022/02/27 00:06:48;;;;;;;2.90;1.77;;;;;;;-145.06;0.00;60892.56;4779669;29;20371;-89
2022/02/27 00:09:29;;;;;;;3.10;1.40;;;;;;;-145.06;0.00;60892.56;4774949;28;20031;-90
2022/02/27 00:12:09;;;;;;;2.83;1.50;;;;;;;-145.06;0.00;60892.56;4752982;29;20035;-90
2022/02/27 00:14:48;;;;;;;3.80;1.88;;;;;;;-145.06;0.00;60892.56;4768792;29;20035;-90
2022/02/27 00:17:27;;;;;;;4.25;1.58;;;;;;;-145.06;0.00;60892.56;4777139;29;20623;-89
2022/02/27 00:20:07;;;;;;;4.23;1.73;;;;;;;-145.06;0.00;60892.56;4798477;28;20023;-90
2022/02/27 00:22:46;;;;;;;3.55;1.50;;;;;;;-145.06;0.00;60892.56;4768908;29;20043;-90
2022/02/27 00:25:25;;;;;;;2.35;1.10;;;;;;;-145.06;0.00;60892.56;4768960;29;20043;-91
2022/02/27 00:28:04;;;;;;;2.17;1.23;;;;;;;-145.06;0.00;60892.56;4769318;29;20024;-92
2022/02/27 00:30:43;;;;;;;4.03;1.30;;;;;;;-145.06;0.00;60892.56;4760327;29;20756;-92
2022/02/27 00:33:22;;;;;;;2.75;1.65;;;;;;;-145.06;0.00;60892.56;4770116;29;20118;-92
2022/02/27 00:36:01;;;;;;;3.07;1.33;;;;;;;-145.06;0.00;60892.56;4776807;29;20118;-92
2022/02/27 00:38:40;;;;;;;1.65;0.93;;;;;;;-145.06;0.00;60892.56;4768775;29;20560;-92
2022/02/27 00:41:20;;;;;;;1.85;1.10;;;;;;;-145.06;0.00;60892.56;4777661;28;20063;-93
2022/02/27 00:43:59;;;;;;;3.10;1.20;;;;;;;-145.06;0.00;60892.56;4768699;28;20035;-92
2022/02/27 00:46:38;;;;;;;2.63;1.45;;;;;;;-145.06;0.00;60892.56;4772662;29;20110;-90
2022/02/27 00:49:17;;;;;;;1.90;1.00;;;;;;;-145.06;0.00;60892.56;4776953;28;20031;-92
2022/02/27 00:51:56;;;;;;;2.27;1.33;;;;;;;-145.06;0.00;60892.56;4789237;28;20283;-92
2022/02/27 00:54:35;;;;;;;2.78;1.42;;;;;;;-145.06;0.00;60892.56;4771702;29;20446;-90
2022/02/27 00:57:14;;;;;;;2.83;1.45;;;;;;;-145.06;0.00;60892.56;4777936;29;20035;-92
2022/02/27 00:59:55;;;;;;;1.90;1.30;;;;;;;2.89;0.00;60892.56;4771759;29;20118;-92
2022/02/27 01:02:34;;;;;;;2.70;1.30;;;;;;;-145.06;0.00;60892.56;4771714;29;20039;-90
2022/02/27 01:05:13;;;;;;;2.08;1.25;;;;;;;-145.06;0.00;60892.56;4788454;28;20062;-92
2022/02/27 01:07:52;;;;;;;4.03;1.70;;;;;;;-145.06;0.00;60892.56;4771921;29;20527;-92
2022/02/27 01:10:31;;;;;;;3.93;1.67;;;;;;;-145.06;0.00;60892.56;4771911;29;20059;-91
2022/02/27 01:13:11;;;;;;;2.38;1.42;;;;;;;-145.06;0.00;60892.56;4765713;29;20629;-92
2022/02/27 01:15:50;;;;;;;1.65;0.98;;;;;;;-145.06;0.00;60892.56;4770338;28;20031;-92
2022/02/27 01:18:28;;;;;;;1.97;1.23;;;;;;;-145.06;0.00;60892.56;4768240;29;20035;-91
2022/02/27 01:21:07;;;;;;;4.03;1.30;;;;;;;-145.06;0.00;60892.56;4771074;29;20114;-89
2022/02/27 01:23:47;;;;;;;2.95;1.33;;;;;;;-145.06;0.00;60892.56;4771438;29;20118;-92
2022/02/27 01:26:26;;;;;;;2.50;1.30;;;;;;;2.54;0.00;60892.56;4760360;29;20034;-91
2022/02/27 01:29:05;;;;;;;4.13;1.70;;;;;;;-145.06;0.00;60892.56;4774124;28;20027;-91
2022/02/27 01:31:44;;;;;;;3.25;1.38;;;;;;;-145.06;0.00;60892.56;4789930;28;20027;-92
2022/02/27 01:34:23;;;;;;;4.30;1.47;;;;;;;-145.06;0.00;60892.56;4775271;29;20031;-92
2022/02/27 01:37:02;;;;;;;2.87;1.27;;;;;;;-145.06;0.00;60892.56;4771560;29;20279;-91
2022/02/27 01:39:42;;;;;;;2.90;1.08;;;;;;;-145.06;0.00;60892.56;4770008;28;20287;-90
2022/02/27 01:42:21;;;;;;;4.53;1.60;;;;;;;187.52;0.00;60892.56;4794112;28;20047;-89
2022/02/27 01:45:05;;;;;;;3.10;1.58;;;;;;;-145.06;0.00;60892.56;4784251;29;20031;-88
2022/02/27 01:47:44;;;;;;;3.15;1.15;;;;;;;-145.06;0.00;60892.56;4785123;29;20031;-90
2022/02/27 01:50:23;;;;;;;2.20;1.13;;;;;;;-145.06;0.00;60892.56;4784594;29;20039;-91
2022/02/27 01:53:02;;;;;;;2.93;1.50;;;;;;;-145.06;0.00;60892.56;4761232;29;20035;-92
2022/02/27 01:55:41;;;;;;;4.97;1.50;;;;;;;-145.06;0.00;60892.56;4780833;28;20679;-90
2022/02/27 01:58:20;;;;;;;3.45;1.40;;;;;;;-145.06;0.00;60892.56;4777580;28;20279;-91
2022/02/27 02:01:00;;;;;;;2.55;1.45;;;;;;;-145.06;0.00;60892.56;4778668;28;20031;-91
2022/02/27 02:03:39;;;;;;;;;;;;;;;-145.06;0.00;60892.56;4776294;29;20571;-89
2022/02/27 02:06:18;;;;;;;3.05;1.23;;;;;;;2.61;0.00;60892.56;4791232;28;19910;-89
2022/02/27 02:08:57;;;;;;;3.38;1.60;;;;;;;-145.06;0.00;60892.56;4769630;29;20031;-89
2022/02/27 02:11:36;;;;;;;2.65;1.20;;;;;;;21.08;0.00;60892.56;4768501;29;20036;-91
2022/02/27 02:14:16;;;;;;;4.03;1.30;;;;;;;-145.06;0.00;60892.56;4769926;29;20066;-87
2022/02/27 02:16:55;;;;;;;4.05;1.58;;;;;;;-145.06;0.00;60892.56;4771164;28;20063;-90
2022/02/27 02:19:34;;;;;;;2.15;1.40;;;;;;;-145.06;0.00;60892.56;4791673;28;20035;-88
2022/02/27 02:22:13;;;;;;;3.50;1.67;;;;;;;-145.06;0.00;60892.56;4770569;28;20492;-89
2022/02/27 02:24:52;;;;;;;2.67;1.55;;;;;;;-145.06;0.00;60892.56;4788334;28;20776;-91
2022/02/27 02:27:32;;;;;;;2.83;1.60;;;;;;;-145.06;0.00;60892.56;4770338;29;20039;-88
2022/02/27 02:30:11;;;;;;;3.35;1.60;;;;;;;-145.06;0.00;60892.56;4764002;28;20463;-90
2022/02/27 02:32:54;;;;;;;4.85;1.38;;;;;;;-145.06;0.00;60892.56;4770549;29;20039;-91
2022/02/27 02:35:33;;;;;;;2.15;1.58;;;;;;;-145.06;0.00;60892.56;4777303;29;20031;-91
2022/02/27 02:38:12;;;;;;;3.47;1.60;;;;;;;-145.06;0.00;60892.56;4772765;28;20113;-91
2022/02/27 02:40:51;;;;;;;2.33;1.50;;;;;;;-145.06;0.00;60892.56;4800925;28;20027;-90
2022/02/27 02:43:31;;;;;;;3.67;1.50;;;;;;;-145.06;0.00;60892.56;4785817;28;20130;-89
2022/02/27 02:46:10;;;;;;;3.22;1.30;;;;;;;5.49;0.00;60892.56;4770252;29;20379;-90
2022/02/27 02:48:49;;;;;;;;;;;;;;;-145.06;0.00;60892.56;4770282;29;20043;-88
2022/02/27 02:51:29;;;;;;;1.85;1.10;;;;;;;-145.06;0.00;60892.56;4769742;29;19919;-90
2022/02/27 02:54:09;;;;;;;2.08;1.13;;;;;;;-145.06;0.00;60892.56;4761604;29;20027;-91
2022/02/27 02:56:48;;;;;;;2.35;1.15;;;;;;;-145.06;0.00;60892.56;4780313;29;20042;-90
2022/02/27 02:59:27;;;;;;;1.75;1.10;;;;;;;-145.06;0.00;60892.56;4764867;29;20513;-91
2022/02/27 03:02:09;;;;;;;2.42;1.20;;;;;;;-145.06;0.00;60892.56;4767990;28;20035;-91
2022/02/27 03:04:48;;;;;;;1.38;0.95;;;;;;;-145.06;0.00;60892.56;4768997;29;20039;-90
2022/02/27 03:07:27;;;;;;;3.40;1.27;;;;;;;-145.06;0.00;60892.56;4771474;28;20475;-88
2022/02/27 03:10:08;;;;;;;3.15;1.38;;;;;;;-145.06;0.00;60892.56;4769700;28;20035;-89
2022/02/27 03:12:47;;;;;;;1.95;1.23;;;;;;;-145.06;0.00;60892.56;4768653;29;20031;-89
2022/02/27 03:15:26;;;;;;;3.27;1.10;;;;;;;-145.06;0.00;60892.56;4774060;29;20110;-90
2022/02/27 03:18:05;;;;;;;0.93;0.80;;;;;;;-145.06;0.00;60892.56;4782662;29;20023;-88
2022/02/27 03:20:44;;;;;;;1.50;1.08;;;;;;;-145.06;0.00;60892.56;4781071;29;20031;-89
2022/02/27 03:23:23;;;;;;;3.08;1.10;;;;;;;-145.06;0.00;60892.56;4781508;28;20031;-90
2022/02/27 03:26:03;;;;;;;2.23;1.20;;;;;;;-145.06;0.00;60892.56;4776003;28;20035;-88
2022/02/27 03:28:44;;;;;;;1.58;0.90;;;;;;;-145.06;0.00;60892.56;4785277;28;20373;-89
2022/02/27 03:31:23;;;;;;;2.45;1.00;;;;;;;-145.06;0.00;60892.56;4762598;29;20035;-89
2022/02/27 03:34:02;;;;;;;1.30;0.80;;;;;;;-145.06;0.00;60892.56;4776370;28;20035;-88
2022/02/27 03:36:41;;;;;;;1.50;1.03;;;;;;;-145.06;0.00;60892.56;4782560;28;20043;-90
2022/02/27 03:39:20;;;;;;;2.23;1.03;;;;;;;-145.06;0.00;60892.56;4774870;28;20035;-90
2022/02/27 03:41:59;;;;;;;2.07;1.07;;;;;;;-145.06;0.00;60892.56;4764925;29;20279;-88
2022/02/27 03:44:38;;;;;;;1.85;0.95;;;;;;;-145.06;0.00;60892.56;4769868;29;20553;-89
2022/02/27 03:47:17;;;;;;;1.67;1.02;;;;;;;-145.06;0.00;60892.56;4768587;29;20071;-90
2022/02/27 03:49:56;;;;;;;1.67;0.80;;;;;;;-145.06;0.00;60892.56;4763894;29;20035;-90
2022/02/27 03:52:35;;;;;;;1.83;0.80;;;;;;;-145.06;0.00;60892.56;4772746;29;20070;-90
2022/02/27 03:55:15;;;;;;;1.63;0.93;;;;;;;-145.06;0.00;60892.56;4757885;28;20040;-89
2022/02/27 03:57:54;;;;;;;1.88;0.93;;;;;;;-145.06;0.00;60892.56;4774144;28;20461;-90
2022/02/27 04:00:33;;;;;;;2.10;0.90;;;;;;;-145.06;0.00;60892.56;4784053;28;20035;-89
2022/02/27 04:03:13;;;;;;;1.88;0.80;;;;;;;-145.06;0.00;60892.56;4770946;29;20283;-90
2022/02/27 04:05:52;;;;;;;0.75;0.70;;;;;;;-145.06;0.00;60892.56;4768033;29;20043;-90
2022/02/27 04:08:31;;;;;;;2.23;1.10;;;;;;;-145.06;0.00;60892.56;4767445;29;20598;-90
2022/02/27 04:11:10;;;;;;;2.88;0.88;;;;;;;-145.06;0.00;60892.56;4781894;29;20035;-89
2022/02/27 04:13:49;;;;;;;1.27;0.90;;;;;;;-145.06;0.00;60892.56;4767802;29;20043;-90
2022/02/27 04:16:28;;;;;;;1.33;0.90;;;;;;;-145.06;0.00;60892.56;4769556;29;20282;-90
2022/02/27 04:19:07;;;;;;;1.53;0.90;;;;;;;-145.06;0.00;60892.56;4771499;29;20287;-89
2022/02/27 04:21:47;;;;;;;1.77;0.82;;;;;;;-145.06;0.00;60892.56;4768668;29;20031;-89
2022/02/27 04:24:26;;;;;;;;;;;;;;;-145.06;0.00;60892.56;4763472;29;20556;-89
2022/02/27 04:27:05;;;;;;;2.63;0.88;;;;;;;-145.06;0.00;60892.56;4768754;29;19914;-91
2022/02/27 04:29:45;;;;;;;2.83;1.30;;;;;;;-145.06;0.00;60892.56;4778831;29;20074;-88
2022/02/27 04:32:24;;;;;;;1.17;0.70;;;;;;;-145.06;0.00;60892.56;4772309;28;20595;-90
2022/02/27 04:35:03;;;;;;;3.05;1.17;;;;;;;-145.06;0.00;60892.56;4770014;29;20060;-90
2022/02/27 04:37:42;;;;;;;2.70;1.02;;;;;;;-145.06;0.00;60892.56;4770431;29;20043;-90
2022/02/27 04:40:22;;;;;;;2.50;0.88;;;;;;;-145.06;0.00;60892.56;4768174;29;20039;-90
2022/02/27 04:43:01;;;;;;;2.47;1.13;;;;;;;-145.06;0.00;60892.56;4777510;29;20039;-89
2022/02/27 04:45:41;;;;;;;1.75;0.98;;;;;;;-145.06;0.00;60892.56;4770775;29;20114;-90
2022/02/27 04:48:20;;;;;;;1.70;1.10;;;;;;;-145.06;0.00;60892.56;4762674;29;20036;-91
2022/02/27 04:50:59;;;;;;;1.90;1.00;;;;;;;-145.06;0.00;60892.56;4770536;29;20513;-90
2022/02/27 04:53:38;;;;;;;2.05;0.90;;;;;;;-145.06;0.00;60892.56;4783831;28;20374;-90
2022/02/27 04:56:17;;;;;;;2.45;1.10;;;;;;;-145.06;0.00;60892.56;4776101;28;20039;-90
2022/02/27 04:58:56;;;;;;;3.03;1.17;;;;;;;-145.06;0.00;60892.56;4769050;28;20035;-88
2022/02/27 05:01:35;;;;;;;1.70;1.00;;;;;;;-145.06;0.00;60892.56;4767416;29;20063;-89
2022/02/27 05:04:14;;;;;;;2.50;1.00;;;;;;;-145.06;0.00;60892.56;4785538;28;20070;-89
2022/02/27 05:06:53;;;;;;;2.15;1.00;;;;;;;-145.06;0.00;60892.56;4770974;28;20283;-90
2022/02/27 05:09:32;;;;;;;1.88;0.82;;;;;;;-145.06;0.00;60892.56;4775763;29;20492;-90
2022/02/27 05:12:11;;;;;;;1.07;0.70;;;;;;;-145.06;0.00;60892.56;4770536;29;20035;-90
2022/02/27 05:14:50;;;;;;;1.83;0.90;;;;;;;-145.06;0.00;60892.56;4783648;29;20960;-89
2022/02/27 05:17:29;;;;;;;2.15;1.23;;;;;;;-145.06;0.00;60892.56;4777581;28;20110;-90
2022/02/27 05:20:09;;;;;;;1.67;0.93;;;;;;;-145.06;0.00;60892.56;4770258;28;20115;-89
2022/02/27 05:22:49;;;;;;;2.35;1.10;;;;;;;-145.06;0.00;60892.56;4770087;29;20426;-89
2022/02/27 05:25:28;;;;;;;1.58;1.00;;;;;;;-145.06;0.00;60892.56;4788177;28;20099;-89
2022/02/27 05:28:07;;;;;;;1.93;1.00;;;;;;;-145.06;0.00;60892.56;4767552;29;20517;-89
2022/02/27 05:30:46;;;;;;;1.37;1.03;;;;;;;-145.06;0.00;60892.56;4771740;28;20369;-89
2022/02/27 05:33:25;;;;;;;1.90;1.30;;;;;;;-145.06;0.00;60892.56;4769992;29;20358;-89
2022/02/27 05:36:04;;;;;;;2.17;1.20;;;;;;;-145.06;0.00;60892.56;4785862;28;20027;-90
2022/02/27 05:38:44;;;;;;;1.75;1.10;;;;;;;-145.06;0.00;60892.56;4767910;29;20027;-90
2022/02/27 05:41:23;;;;;;;2.08;1.30;;;;;;;-145.06;0.00;60892.56;4774264;29;20039;-89
2022/02/27 05:44:02;;;;;;;3.08;1.23;;;;;;;-145.06;0.00;60892.56;4773739;29;20031;-89
2022/02/27 05:46:41;;;;;;;2.15;1.08;;;;;;;1.59;0.00;60892.56;4762057;29;20040;-88
2022/02/27 05:49:20;;;;;;;2.33;0.80;;;;;;;-145.06;0.00;60892.56;4780634;28;20043;-89
2022/02/27 05:51:59;;;;;;;2.17;1.20;;;;;;;1.53;0.00;60892.56;4771189;29;20043;-89
2022/02/27 05:54:38;;;;;;;2.05;0.90;;;;;;;-145.06;0.00;60892.56;4809530;28;20035;-90
2022/02/27 05:57:18;;;;;;;2.92;1.02;;;;;;;-145.06;0.00;60892.56;4802358;28;20039;-90
2022/02/27 05:59:56;;;;;;;3.13;1.10;;;;;;;-145.06;0.00;60892.56;4770174;29;20035;-90
2022/02/27 06:02:35;;;;;;;1.20;0.80;;;;;;;-145.06;0.00;60892.56;4790484;28;20038;-89
2022/02/27 06:05:14;;;;;;;1.53;1.10;;;;;;;-145.06;0.00;60892.56;4784387;28;20047;-88
2022/02/27 06:07:53;;;;;;;2.08;1.00;;;;;;;-145.06;0.00;60892.56;4789240;28;20039;-89
2022/02/27 06:10:33;;;;;;;2.95;1.10;;;;;;;-145.06;0.00;60892.56;4776339;28;20122;-90
2022/02/27 06:13:12;;;;;;;1.48;1.08;;;;;;;-145.06;0.00;60892.56;4776847;29;20031;-90
2022/02/27 06:15:51;;;;;;;2.37;1.10;;;;;;;-145.06;0.00;60892.56;4775397;28;20047;-90
2022/02/27 06:18:30;;;;;;;2.13;1.10;;;;;;;-145.06;0.00;60892.56;4787501;28;20122;-90
2022/02/27 06:21:09;;;;;;;2.42;1.05;;;;;;;21.08;0.00;60892.56;4780284;29;20031;-89
2022/02/27 06:23:48;;;;;;;2.63;1.30;;;;;;;1.50;0.00;60892.56;4771787;29;20075;-88
2022/02/27 06:26:30;;;;;;;4.23;1.30;;;;;;;-145.06;0.00;60892.56;4768517;29;20039;-90
2022/02/27 06:29:09;;;;;;;2.28;1.38;;;;;;;-145.06;0.00;60892.56;4779081;28;20310;-89
2022/02/27 06:31:48;;;;;;;2.75;1.15;;;;;;;-145.06;0.00;60892.56;4769979;29;20028;-90
2022/02/27 06:34:27;;;;;;;4.07;1.48;;;;;;;10.68;0.00;60892.56;4768094;29;20079;-89
2022/02/27 06:37:06;;;;;;;4.93;1.45;;;;;;;-145.06;0.00;60892.56;4772398;29;20054;-88
2022/02/27 06:39:45;;;;;;;3.10;1.63;;;;;;;-145.06;0.00;60892.56;4757220;29;20039;-90
2022/02/27 06:42:24;;;;;;;3.25;1.40;;;;;;;1.51;0.00;60892.56;4796234;28;20047;-89
2022/02/27 06:45:04;;;;;;;2.83;1.07;;;;;;;-145.06;0.00;60892.56;4768636;29;20074;-89
2022/02/27 06:47:44;;;;;;;1.88;1.08;;;;;;;-145.06;0.00;60892.56;4782698;29;20030;-89
2022/02/27 06:50:24;;;;;;;;;;;;;;;-145.06;0.00;60892.56;4763625;29;20032;-90
2022/02/27 06:53:03;;;;;;;2.05;1.25;;;;;;;-145.06;0.00;60892.56;4766065;29;20000;-89
2022/02/27 06:55:42;;;;;;;4.13;1.20;;;;;;;2.89;0.00;60892.56;4787875;28;20043;-90
2022/02/27 06:58:21;;;;;;;2.85;1.50;;;;;;;-145.06;0.00;60892.56;4787287;28;20688;-88
2022/02/27 07:01:00;;;;;;;2.70;1.20;;;;;;;-145.06;0.00;60892.56;4777875;28;20035;-89
2022/02/27 07:03:39;;;;;;;1.42;1.20;;;;;;;1.58;0.00;60892.56;4780736;28;20058;-90
2022/02/27 07:06:18;;;;;;;2.77;1.27;;;;;;;-145.06;0.00;60892.56;4788379;28;20035;-89
2022/02/27 07:08:56;;;;;;;2.50;1.20;;;;;;;-145.06;0.00;60892.56;4777457;28;20482;-88
2022/02/27 07:11:36;;;;;;;3.23;1.30;;;;;;;-145.06;0.00;60892.56;4763536;29;20280;-91
2022/02/27 07:14:15;;;;;;;2.95;1.27;;;;;;;-145.06;0.00;60892.56;4768446;29;20031;-89
2022/02/27 07:16:54;;;;;;;1.60;0.98;;;;;;;-145.06;0.00;60892.56;4766469;29;20043;-89
2022/02/27 07:19:33;;;;;;;5.18;1.33;;;;;;;-145.06;0.00;60892.56;4777167;28;20038;-88
2022/02/27 07:22:13;;;;;;;1.73;1.10;;;;;;;-145.06;0.00;60892.56;4763474;29;20035;-89
2022/02/27 07:24:52;;;;;;;;;;;;;;;-145.06;0.00;60892.56;4776228;28;20275;-90
2022/02/27 07:27:34;;;;;;;3.30;1.40;;;;;;;-145.06;0.00;60892.56;4765001;29;19970;-89
2022/02/27 07:30:14;;;;;;;2.65;1.30;;;;;;;-145.06;0.00;60892.56;4771249;28;20066;-90
2022/02/27 07:32:53;;;;;;;3.25;1.42;;;;;;;-145.06;0.00;60892.56;4783393;28;20035;-89
2022/02/27 07:35:32;;;;;;;2.00;1.27;;;;;;;-145.06;0.00;60892.56;4790485;28;20047;-89
2022/02/27 07:38:11;;;;;;;2.33;1.43;;;;;;;-145.06;0.00;60892.56;4783128;29;20034;-90
2022/02/27 07:40:51;;;;;;;2.53;1.20;;;;;;;-145.06;0.00;60892.56;4776936;28;20026;-90
2022/02/27 07:43:31;;;;;;;3.05;1.02;;;;;;;-145.06;0.00;60892.56;4774859;29;20035;-89
2022/02/27 07:46:09;;;;;;;1.88;1.38;;;;;;;-145.06;0.00;60892.56;4767943;29;20038;-90
2022/02/27 07:48:48;;;;;;;3.60;1.60;;;;;;;-145.06;0.00;60892.56;4764192;29;20039;-90
2022/02/27 07:51:27;;;;;;;2.17;1.48;;;;;;;-145.06;0.00;60892.56;4780932;29;20035;-90
2022/02/27 07:54:06;;;;;;;3.88;1.80;;;;;;;-145.06;0.00;60892.56;4767140;29;20488;-90
2022/02/27 07:56:46;;;;;;;2.33;1.45;;;;;;;-145.06;0.00;60892.56;4768527;29;20043;-89
2022/02/27 07:59:25;;;;;;;3.80;1.33;;;;;;;-145.06;0.00;60892.56;4782805;29;20035;-89
2022/02/27 08:02:04;;;;;;;3.03;1.40;;;;;;;-145.06;0.00;60892.56;4789671;28;20050;-89
2022/02/27 08:04:43;;;;;;;2.13;1.30;;;;;;;-145.06;0.00;60892.56;4777674;29;20035;-88
2022/02/27 08:07:22;;;;;;;3.08;1.23;;;;;;;-145.06;0.00;60892.56;4767377;29;20047;-89
2022/02/27 08:10:01;;;;;;;3.85;1.90;;;;;;;-145.06;0.00;60892.56;4767438;29;20070;-91
2022/02/27 08:12:42;;;;;;;;;;;;;;;-145.06;0.00;60892.56;4797982;28;20035;-89
2022/02/27 08:15:21;;;;;;;2.47;1.40;;;;;;;-145.06;0.00;60892.56;4770500;29;19918;-90
2022/02/27 08:18:00;;;;;;;;;;;;;;;-145.06;0.00;60892.56;4780993;28;20484;-90
2022/02/27 08:20:39;;;;;;;4.03;1.70;;;;;;;-145.06;0.00;60892.56;4767441;29;19915;-91
2022/02/27 08:23:18;;;;;;;1.57;1.20;;;;;;;2.65;0.00;60892.56;4767743;28;20290;-90
2022/02/27 08:25:59;;;;;;;4.13;1.70;;;;;;;-145.06;0.00;60892.56;4785110;28;20059;-90
2022/02/27 08:28:38;;;;;;;2.78;1.45;;;;;;;-145.06;0.00;60892.56;4778627;28;20067;-91
2022/02/27 08:31:17;;;;;;;2.43;1.60;;;;;;;-145.06;0.00;60892.56;4767723;29;20479;-90
2022/02/27 08:33:56;;;;;;;2.92;1.35;;;;;;;-145.06;0.00;60892.56;4768223;29;20271;-90
2022/02/27 08:36:36;;;;;;;4.78;1.55;;;;;;;-145.06;0.00;60892.56;4784171;28;20931;-90
2022/02/27 08:39:15;;;;;;;5.05;1.52;;;;;;;-145.06;0.00;60892.56;4770623;29;20039;-90
2022/02/27 08:41:54;;;;;;;5.53;2.30;;;;;;;-145.06;0.00;60892.56;4788892;28;20027;-90
2022/02/27 08:44:33;;;;;;;2.37;1.40;;;;;;;-145.06;0.00;60892.56;4767837;29;20031;-90
2022/02/27 08:47:12;;;;;;;2.72;1.60;;;;;;;-145.06;0.00;60892.56;4767182;28;20121;-91
2022/02/27 08:49:51;;;;;;;4.13;1.60;;;;;;;-145.06;0.00;60892.56;4755556;29;20039;-92
2022/02/27 08:52:31;;;;;;;2.45;1.48;;;;;;;-145.06;0.00;60892.56;4767876;29;20326;-90
2022/02/27 08:55:12;;;;;;;1.83;1.20;;;;;;;-145.06;0.00;60892.56;4784125;28;20035;-89
2022/02/27 08:57:52;;;;;;;2.72;1.67;;;;;;;-145.06;0.00;60892.56;4782438;28;20042;-89
2022/02/27 09:00:31;;;;;;;2.42;1.40;;;;;;;-145.06;0.00;60892.56;4772586;28;20114;-90
2022/02/27 09:03:10;;;;;;;3.85;1.40;;;;;;;-145.06;0.00;60892.56;4771035;28;20031;-91
2022/02/27 09:05:51;;;;;;;3.63;1.70;;;;;;;3.80;0.00;60892.56;4771965;29;20039;-91
2022/02/27 09:08:30;;;;;;;3.25;1.70;;;;;;;-145.06;0.00;60892.56;4786948;28;20011;-91
2022/02/27 09:11:10;;;;;;;3.53;1.80;;;;;;;-145.06;0.00;60892.56;4805620;28;20019;-91
2022/02/27 09:13:49;;;;;;;2.95;1.58;;;;;;;-145.06;0.00;60892.56;4788587;28;20031;-89
2022/02/27 09:16:28;;;;;;;1.73;1.13;;;;;;;-145.06;0.00;60892.56;4770612;29;20031;-91
2022/02/27 09:19:07;;;;;;;1.70;1.10;;;;;;;-145.06;0.00;60892.56;4772451;28;20035;-92
2022/02/27 09:21:46;;;;;;;1.93;1.40;;;;;;;-145.06;0.00;60892.56;4770245;29;20027;-89
2022/02/27 09:24:25;;;;;;;3.20;1.52;;;;;;;-145.06;0.00;60892.56;4769635;28;20035;-90
2022/02/27 09:27:05;;;;;;;3.10;1.55;;;;;;;-145.06;0.00;60892.56;4779277;28;20062;-91
2022/02/27 09:29:44;;;;;;;3.38;1.60;;;;;;;-145.06;0.00;60892.56;4781161;29;20063;-89
2022/02/27 09:32:23;;;;;;;2.63;1.90;;;;;;;-145.06;0.00;60892.56;4770255;29;20043;-91
2022/02/27 09:35:03;;;;;;;3.57;1.80;;;;;;;-145.06;0.00;60892.56;4770132;29;20035;-90
2022/02/27 09:37:43;;;;;;;2.72;1.77;;;;;;;-145.06;0.00;60892.56;4769913;28;20374;-90
2022/02/27 09:40:25;;;;;;;3.13;1.88;;;;;;;-145.06;0.00;60892.56;4770946;29;20032;-90
2022/02/27 09:43:05;;;;;;;4.28;1.90;;;;;;;-145.06;0.00;60892.56;4796341;28;20039;-89
2022/02/27 09:45:46;;;;;;;3.00;1.45;;;;;;;-145.06;0.00;60892.56;4781043;28;20421;-89
2022/02/27 09:48:27;;;;;;;2.65;1.30;;;;;;;5.32;0.00;60892.56;4773678;28;20035;-89
2022/02/27 09:51:06;;;;;;;1.70;1.10;;;;;;;-145.06;0.00;60892.56;4770648;29;20114;-89
2022/02/27 09:53:45;;;;;;;4.03;2.03;;;;;;;-145.06;0.00;60892.56;4768024;29;20162;-90
2022/02/27 09:56:25;;;;;;;3.10;2.10;;;;;;;-145.06;0.00;60892.56;4774087;28;20034;-89
2022/02/27 09:59:04;;;;;;;3.40;1.95;;;;;;;-145.06;0.00;60892.56;4790644;28;20315;-89
2022/02/27 10:02:04;;;;;;;3.92;1.92;;;;;;;-145.06;0.00;60892.56;4771849;28;20043;-90
2022/02/27 10:04:44;;;;;;;2.83;1.60;;;;;;;-145.06;0.00;60892.56;4789681;28;20039;-89
2022/02/27 10:07:24;;;;;;;4.75;1.83;;;;;;;-145.06;0.00;60892.56;4768958;29;20635;-91
2022/02/27 10:10:07;;;;;;;2.23;1.53;;;;;;;-145.06;0.00;60892.56;4768461;29;20039;-89
2022/02/27 10:12:48;;;;;;;3.13;1.23;;;;;;;-145.06;0.00;60892.56;4768890;29;20287;-91
2022/02/27 10:15:27;;;;;;;2.53;1.20;;;;;;;-145.06;0.00;60892.56;4779501;29;20378;-90
2022/02/27 10:18:12;;;;;;;2.25;1.05;;;;;;;-145.06;0.00;60892.56;4769517;29;20484;-90
2022/02/27 10:20:51;;;;;;;1.58;1.00;;;;;;;-145.06;0.00;60892.56;4763610;29;20517;-90
2022/02/27 10:23:30;;;;;;;1.40;0.97;;;;;;;-145.06;0.00;60892.56;4771997;28;20066;-91
2022/02/27 10:26:30;;;;;;;1.60;1.00;;;;;;;-145.06;0.00;60892.56;4777207;28;22145;-89
2022/02/27 10:29:19;;;;;;;1.08;0.98;;;;;;;-145.06;0.00;60892.56;4769315;29;20063;-89
2022/02/27 10:31:58;;;;;;;1.30;0.70;;;;;;;-145.06;0.00;60892.56;4779761;29;20039;-91
2022/02/27 10:34:37;;;;;;;1.37;0.90;;;;;;;8.00;0.00;60892.56;4756939;29;20031;-89
2022/02/27 10:37:18;;;;;;;1.10;0.70;;;;;;;-145.06;0.00;60892.56;4768577;29;20286;-89
2022/02/27 10:39:59;;;;;;;2.45;1.00;;;;;;;-145.06;0.00;60892.56;4782419;29;20110;-89
2022/02/27 10:42:38;;;;;;;1.58;0.70;;;;;;;-145.06;0.00;60892.56;4792758;28;20379;-90
2022/02/27 10:45:19;;;;;;;1.37;0.90;;;;;;;-145.06;0.00;60892.56;4764060;29;20035;-89
2022/02/27 10:48:14;;;;;;;3.50;0.70;;;;;;;-145.06;0.00;60892.56;4782252;29;20524;-90
2022/02/27 10:51:04;;;;;;;2.08;0.85;;;;;;;8.94;0.00;60892.56;4782758;29;20032;-90
2022/02/27 10:53:46;;;;;;;2.72;1.20;;;;;;;-145.06;0.00;60892.56;4780201;29;20362;-90
2022/02/27 10:56:32;;;;;;;1.98;1.20;;;;;;;9.22;0.00;60892.56;4764635;29;20035;-90
2022/02/27 10:59:15;;;;;;;2.67;1.20;;;;;;;9.20;0.00;60892.56;4751040;29;20023;-90
2022/02/27 11:01:54;;;;;;;2.08;1.35;;;;;;;-145.06;0.00;60892.56;4790220;28;20027;-90
2022/02/27 11:04:34;;;;;;;3.50;1.88;;;;;;;9.34;0.00;60892.56;4768672;29;20031;-91
2022/02/27 11:07:14;;;;;;;2.97;1.63;;;;;;;-145.06;0.00;60892.56;4768807;29;20047;-91
2022/02/27 11:09:53;;;;;;;2.25;1.48;;;;;;;-145.06;0.00;60892.56;4783162;29;20031;-91
2022/02/27 11:12:34;;;;;;;1.70;1.00;;;;;;;-145.06;0.00;60892.56;4755273;29;20031;-90
2022/02/27 11:15:16;;;;;;;0.90;0.77;;;;;;;-145.06;0.00;60892.56;4793131;28;20026;-89
2022/02/27 11:17:56;;;;;;;1.67;0.95;;;;;;;-145.06;0.00;60892.56;4779778;29;20031;-90
2022/02/27 11:20:35;;;;;;;1.95;1.00;;;;;;;-145.06;0.00;60892.56;4769692;29;20473;-89
2022/02/27 11:23:14;;;;;;;1.30;0.70;;;;;;;-145.06;0.00;60892.56;4775750;29;20043;-91
2022/02/27 11:25:55;;;;;;;1.00;0.85;;;;;;;-145.06;0.00;60892.56;4768162;29;20671;-90
2022/02/27 11:28:36;;;;;;;1.40;0.80;;;;;;;-145.06;0.00;60892.56;4767943;29;20035;-90
2022/02/27 11:31:16;;;;;;;1.02;0.70;;;;;;;-145.06;0.00;60892.56;4781351;29;20691;-91
2022/02/27 11:34:15;;;;;;;1.58;0.70;;;;;;;-145.06;0.00;60892.56;4767523;29;20070;-90
2022/02/27 11:36:56;;;;;;;2.17;0.87;;;;;;;-145.06;0.00;60892.56;4767685;29;20038;-90
2022/02/27 11:42:50;;;;;;;2.35;0.82;;;;;;;10.48;0.00;60892.56;4781314;29;20473;-90
2022/02/27 11:45:32;;;;;;;1.52;0.65;;;;;;;10.56;0.00;60892.56;4767216;29;20038;-90
2022/02/27 11:48:12;;;;;;;1.00;0.70;;;;;;;10.68;0.00;60892.56;4767712;29;20035;-90
2022/02/27 11:50:52;;;;;;;1.52;0.80;;;;;;;-145.06;0.00;60892.56;4780024;29;20063;-91
2022/02/27 11:53:47;;;;;;;1.85;0.70;;;;;;;-145.06;0.00;60892.56;4767478;29;20135;-89
2022/02/27 11:56:29;;;;;;;1.27;0.50;;;;;;;11.98;0.00;60892.56;4768009;29;20031;-90
2022/02/27 11:59:09;;;;;;;0.93;0.55;;;;;;;11.33;0.00;60892.56;4762263;29;20065;-90
2022/02/27 12:01:48;;;;;;;1.88;0.70;;;;;;;-145.06;0.00;60892.56;4771817;28;20054;-89
2022/02/27 12:04:27;;;;;;;0.77;0.73;;;;;;;-145.06;0.00;60892.56;4770891;29;20035;-90
2022/02/27 12:07:09;;;;;;;1.48;0.80;;;;;;;-145.06;0.00;60892.56;4781145;29;20039;-90
2022/02/27 12:09:48;;;;;;;0.90;0.73;;;;;;;-145.06;0.00;60892.56;4780678;29;20493;-90
2022/02/27 12:12:37;;;;;;;1.90;0.57;;;;;;;-145.06;0.00;60892.56;4767933;29;20043;-90
2022/02/27 12:15:16;;;;;;;0.70;0.60;;;;;;;-145.06;0.00;60892.56;4762182;29;20622;-90
2022/02/27 12:18:01;;;;;;;1.30;0.73;;;;;;;-145.06;0.00;60892.56;4780131;29;20042;-89
2022/02/27 12:20:43;;;;;;;1.73;0.80;;;;;;;-145.06;0.00;60892.56;4765598;29;20024;-91
2022/02/27 12:23:31;;;;;;;1.73;0.50;;;;;;;-145.06;0.00;60892.56;4774623;29;20031;-90
2022/02/27 12:26:36;;;;;;;1.75;0.80;;;;;;;-145.06;0.00;60892.56;4767839;29;20031;-90
2022/02/27 12:29:25;;;;;;;1.10;0.50;;;;;;;-145.06;0.00;60892.56;4767721;28;20737;-91
2022/02/27 12:32:07;;;;;;;1.13;0.60;;;;;;;-145.06;0.00;60892.56;4775518;29;20051;-90